Iqaluit, Nunavut

5:25 AM EST on January 30, 2015 (GMT -0500)
Iqaluit | Change Station
CLOSE
Current Station
Airport
Location: Iqaluit,
Elevation: 112 ft
Nearby Weather Stations

Elev 112 ft 63.76 °N, 68.56 °W | Updated 25 minutes ago

Clear
Clear
-17 °F
Feels Like -17 °F
N
2
Wind Variable Wind from Variable
Gusts mph

Today is forecast to be nearly the same temperature as yesterday.

Today
High -- | Low -- °F
--% Chance of Precip.
Yesterday
High -- | Low -- °F
Precip. -- in
8:17 AM 3:17 PM
Waxing Gibbous, 81% visible
Pressure 29.92 in
Visibility 15.0 miles
Clouds Few 13000 ft
Mostly Cloudy 16000 ft
Dew Point -26 °F
Humidity 64%
Rainfall 0.00 in
Snow Depth Not available.
UV 0 out of 12
Pollen Not available.
Air Quality Not available.
Flu Activity Not available.
METAR CYFB 301000Z VRB02KT 15SM IC FEW130 BKN160 M27/M32 A2990 RMK AC2AC3 SLP130

More Conditions Fewer Conditions

Pressure 29.92 in
Visibility 15.0 miles
Clouds Few 13000 ft
Mostly Cloudy 16000 ft
Dew Point -26 °F
Humidity 64%
Rainfall 0.00 in
Snow Depth Not available.
UV 0 out of 12
Pollen Not available.
Air Quality Not available.
Flu Activity Not available.
METAR CYFB 301000Z VRB02KT 15SM IC FEW130 BKN160 M27/M32 A2990 RMK AC2AC3 SLP130

More Conditions Fewer Conditions

10-Day Weather Forecast

Almanac

Astronomy

Jan. 30, 2015 Rise Set
Actual Time
Civil Twilight
Nautical Twilight
Astronomical Twilight
Moon
Length of Visible Light
Length of Day
Tomorrow will be .
, % of the Moon is Illuminated

Today's Extremes

Country Highs Country Lows

Community

WunderPhotos

Upload Photos

1,791,736 photos uploaded!

WunderBlogs® & News

Nearby

Air Quality

  Air Quality AQ Index Pollutant
Not available.

Snow Depth

Station Depth Elevation

Earthquake Activity

City Distance Mag. Time & Date
Minimum magnitude displayed is 2.5.

Coastal Water Temperatures

Place Temperature

Nearby Weather Stations